sensor_id;sensor_type;location;lat;lon;timestamp;pressure;altitude;pressure_sealevel;temperature;humidity
43436;BME280;36399;51.444;-2.018;2024-03-08T00:02:05;99985.34;;;4.55;100.00
43436;BME280;36399;51.444;-2.018;2024-03-08T00:04:31;99993.69;;;4.43;100.00
43436;BME280;36399;51.444;-2.018;2024-03-08T00:06:57;99998.84;;;4.42;100.00
43436;BME280;36399;51.444;-2.018;2024-03-08T00:09:23;99988.66;;;4.50;100.00
43436;BME280;36399;51.444;-2.018;2024-03-08T00:11:49;99986.31;;;4.59;100.00
43436;BME280;36399;51.444;-2.018;2024-03-08T00:14:16;99985.97;;;4.47;100.00
43436;BME280;36399;51.444;-2.018;2024-03-08T00:16:42;99980.03;;;4.51;100.00
43436;BME280;36399;51.444;-2.018;2024-03-08T00:19:09;99978.34;;;4.53;100.00
43436;BME280;36399;51.444;-2.018;2024-03-08T00:21:35;99963.63;;;4.53;100.00
43436;BME280;36399;51.444;-2.018;2024-03-08T00:24:01;99969.19;;;4.35;100.00
43436;BME280;36399;51.444;-2.018;2024-03-08T00:26:27;99971.25;;;4.17;100.00
43436;BME280;36399;51.444;-2.018;2024-03-08T00:28:55;99972.56;;;4.04;100.00
43436;BME280;36399;51.444;-2.018;2024-03-08T00:31:21;99966.09;;;3.92;100.00
43436;BME280;36399;51.444;-2.018;2024-03-08T00:33:47;99961.56;;;3.85;100.00
43436;BME280;36399;51.444;-2.018;2024-03-08T00:36:13;99961.69;;;3.62;100.00
43436;BME280;36399;51.444;-2.018;2024-03-08T00:38:39;99960.94;;;3.65;100.00
43436;BME280;36399;51.444;-2.018;2024-03-08T00:41:05;99958.88;;;3.56;100.00
43436;BME280;36399;51.444;-2.018;2024-03-08T00:43:31;99952.41;;;3.69;100.00
43436;BME280;36399;51.444;-2.018;2024-03-08T00:45:57;99968.25;;;3.51;100.00
43436;BME280;36399;51.444;-2.018;2024-03-08T00:48:23;99967.16;;;3.44;100.00
43436;BME280;36399;51.444;-2.018;2024-03-08T00:50:49;99968.13;;;3.48;100.00
43436;BME280;36399;51.444;-2.018;2024-03-08T00:53:15;99965.78;;;3.29;100.00
43436;BME280;36399;51.444;-2.018;2024-03-08T00:55:42;99954.75;;;3.36;100.00
43436;BME280;36399;51.444;-2.018;2024-03-08T00:58:08;99952.06;;;3.33;100.00
43436;BME280;36399;51.444;-2.018;2024-03-08T01:00:35;99949.78;;;3.16;100.00
43436;BME280;36399;51.444;-2.018;2024-03-08T01:03:01;99926.50;;;3.18;100.00
43436;BME280;36399;51.444;-2.018;2024-03-08T01:05:29;99930.38;;;3.05;100.00
43436;BME280;36399;51.444;-2.018;2024-03-08T01:07:55;99926.53;;;2.94;100.00
43436;BME280;36399;51.444;-2.018;2024-03-08T01:10:21;99915.28;;;2.94;100.00
43436;BME280;36399;51.444;-2.018;2024-03-08T01:12:47;99914.50;;;2.96;100.00
43436;BME280;36399;51.444;-2.018;2024-03-08T01:15:13;99905.91;;;2.97;100.00
43436;BME280;36399;51.444;-2.018;2024-03-08T01:17:39;99907.66;;;2.98;100.00
43436;BME280;36399;51.444;-2.018;2024-03-08T01:20:05;99903.00;;;2.88;100.00
43436;BME280;36399;51.444;-2.018;2024-03-08T01:22:31;99910.63;;;2.83;100.00
43436;BME280;36399;51.444;-2.018;2024-03-08T01:24:57;99903.50;;;2.78;100.00
43436;BME280;36399;51.444;-2.018;2024-03-08T01:27:23;99899.97;;;2.76;100.00
43436;BME280;36399;51.444;-2.018;2024-03-08T01:29:50;99899.00;;;2.72;100.00
43436;BME280;36399;51.444;-2.018;2024-03-08T01:32:16;99888.47;;;2.68;100.00
43436;BME280;36399;51.444;-2.018;2024-03-08T01:34:42;99882.47;;;2.69;100.00
43436;BME280;36399;51.444;-2.018;2024-03-08T01:37:10;99878.94;;;2.67;100.00
43436;BME280;36399;51.444;-2.018;2024-03-08T01:39:36;99861.53;;;2.63;100.00
43436;BME280;36399;51.444;-2.018;2024-03-08T01:42:02;99853.59;;;2.60;100.00
43436;BME280;36399;51.444;-2.018;2024-03-08T01:44:28;99855.09;;;2.53;100.00
43436;BME280;36399;51.444;-2.018;2024-03-08T01:46:56;99846.59;;;2.57;100.00
43436;BME280;36399;51.444;-2.018;2024-03-08T01:49:22;99843.66;;;2.46;100.00
43436;BME280;36399;51.444;-2.018;2024-03-08T01:51:49;99829.75;;;2.44;100.00
43436;BME280;36399;51.444;-2.018;2024-03-08T01:54:16;99831.63;;;2.48;100.00
43436;BME280;36399;51.444;-2.018;2024-03-08T01:56:44;99831.41;;;2.42;100.00
43436;BME280;36399;51.444;-2.018;2024-03-08T01:59:10;99817.53;;;2.40;100.00
43436;BME280;36399;51.444;-2.018;2024-03-08T02:01:36;99821.19;;;2.21;100.00
43436;BME280;36399;51.444;-2.018;2024-03-08T02:04:02;99809.34;;;2.28;100.00
43436;BME280;36399;51.444;-2.018;2024-03-08T02:06:28;99802.28;;;2.24;100.00
43436;BME280;36399;51.444;-2.018;2024-03-08T02:08:55;99797.84;;;2.20;100.00
43436;BME280;36399;51.444;-2.018;2024-03-08T02:11:21;99804.00;;;2.24;100.00
43436;BME280;36399;51.444;-2.018;2024-03-08T02:13:47;99789.44;;;2.27;100.00
43436;BME280;36399;51.444;-2.018;2024-03-08T02:16:20;99803.91;;;2.20;100.00
43436;BME280;36399;51.444;-2.018;2024-03-08T02:18:46;99784.38;;;2.30;100.00
43436;BME280;36399;51.444;-2.018;2024-03-08T02:21:12;99767.19;;;2.32;100.00
43436;BME280;36399;51.444;-2.018;2024-03-08T02:23:39;99757.50;;;2.27;100.00
43436;BME280;36399;51.444;-2.018;2024-03-08T02:26:05;99753.31;;;2.30;100.00
43436;BME280;36399;51.444;-2.018;2024-03-08T02:28:33;99724.19;;;2.37;100.00
43436;BME280;36399;51.444;-2.018;2024-03-08T02:30:59;99715.47;;;2.35;100.00
43436;BME280;36399;51.444;-2.018;2024-03-08T02:33:28;99700.97;;;2.40;100.00
43436;BME280;36399;51.444;-2.018;2024-03-08T02:35:54;99697.69;;;2.46;100.00
43436;BME280;36399;51.444;-2.018;2024-03-08T02:38:22;99683.97;;;2.48;100.00
43436;BME280;36399;51.444;-2.018;2024-03-08T02:40:51;99675.13;;;2.42;100.00
43436;BME280;36399;51.444;-2.018;2024-03-08T02:43:18;99667.31;;;2.40;100.00
43436;BME280;36399;51.444;-2.018;2024-03-08T02:45:45;99658.91;;;2.47;100.00
43436;BME280;36399;51.444;-2.018;2024-03-08T02:48:12;99653.31;;;2.35;100.00
43436;BME280;36399;51.444;-2.018;2024-03-08T02:50:38;99649.31;;;2.45;100.00
43436;BME280;36399;51.444;-2.018;2024-03-08T02:53:08;99634.50;;;2.41;100.00
43436;BME280;36399;51.444;-2.018;2024-03-08T02:55:34;99634.47;;;2.39;100.00
43436;BME280;36399;51.444;-2.018;2024-03-08T02:58:04;99625.38;;;2.25;100.00
43436;BME280;36399;51.444;-2.018;2024-03-08T03:00:30;99617.25;;;2.41;100.00
43436;BME280;36399;51.444;-2.018;2024-03-08T03:02:57;99617.75;;;2.30;100.00
43436;BME280;36399;51.444;-2.018;2024-03-08T03:05:23;99600.25;;;2.49;100.00
43436;BME280;36399;51.444;-2.018;2024-03-08T03:07:50;99595.66;;;2.68;100.00
43436;BME280;36399;51.444;-2.018;2024-03-08T03:10:17;99577.63;;;2.72;100.00
43436;BME280;36399;51.444;-2.018;2024-03-08T03:12:44;99559.03;;;2.85;100.00
43436;BME280;36399;51.444;-2.018;2024-03-08T03:15:11;99550.63;;;2.94;100.00
43436;BME280;36399;51.444;-2.018;2024-03-08T03:17:41;99529.38;;;3.07;100.00
43436;BME280;36399;51.444;-2.018;2024-03-08T03:20:08;99510.31;;;3.05;100.00
43436;BME280;36399;51.444;-2.018;2024-03-08T03:22:40;99513.69;;;3.03;100.00
43436;BME280;36399;51.444;-2.018;2024-03-08T03:25:12;99492.41;;;3.13;100.00
43436;BME280;36399;51.444;-2.018;2024-03-08T03:27:38;99479.72;;;3.24;100.00
43436;BME280;36399;51.444;-2.018;2024-03-08T03:30:06;99465.88;;;3.23;100.00
43436;BME280;36399;51.444;-2.018;2024-03-08T03:32:50;99460.88;;;3.31;100.00
43436;BME280;36399;51.444;-2.018;2024-03-08T03:35:20;99439.59;;;3.44;100.00
43436;BME280;36399;51.444;-2.018;2024-03-08T03:37:47;99426.09;;;3.59;100.00
43436;BME280;36399;51.444;-2.018;2024-03-08T03:40:33;99416.53;;;3.56;100.00
43436;BME280;36399;51.444;-2.018;2024-03-08T03:42:59;99402.19;;;3.70;100.00
43436;BME280;36399;51.444;-2.018;2024-03-08T03:45:26;99400.44;;;3.69;100.00
43436;BME280;36399;51.444;-2.018;2024-03-08T03:47:52;99388.44;;;3.74;100.00
43436;BME280;36399;51.444;-2.018;2024-03-08T03:50:18;99384.34;;;3.86;100.00
43436;BME280;36399;51.444;-2.018;2024-03-08T03:52:48;99388.59;;;3.82;100.00
43436;BME280;36399;51.444;-2.018;2024-03-08T03:55:14;99374.16;;;3.95;100.00
43436;BME280;36399;51.444;-2.018;2024-03-08T03:57:41;99387.91;;;3.91;100.00
43436;BME280;36399;51.444;-2.018;2024-03-08T04:00:07;99382.00;;;3.98;100.00
43436;BME280;36399;51.444;-2.018;2024-03-08T04:02:39;99368.34;;;4.06;100.00
43436;BME280;36399;51.444;-2.018;2024-03-08T04:05:06;99367.81;;;4.21;100.00
43436;BME280;36399;51.444;-2.018;2024-03-08T04:07:33;99355.59;;;4.17;100.00
43436;BME280;36399;51.444;-2.018;2024-03-08T04:10:02;99355.72;;;4.23;100.00
43436;BME280;36399;51.444;-2.018;2024-03-08T04:12:28;99356.56;;;4.21;100.00
43436;BME280;36399;51.444;-2.018;2024-03-08T04:14:55;99354.16;;;4.31;100.00
43436;BME280;36399;51.444;-2.018;2024-03-08T04:17:22;99342.16;;;4.38;100.00
43436;BME280;36399;51.444;-2.018;2024-03-08T04:19:50;99345.63;;;4.38;100.00
43436;BME280;36399;51.444;-2.018;2024-03-08T04:22:16;99355.09;;;4.35;100.00
43436;BME280;36399;51.444;-2.018;2024-03-08T04:24:46;99351.78;;;4.42;100.00
43436;BME280;36399;51.444;-2.018;2024-03-08T04:27:12;99350.94;;;4.44;100.00
43436;BME280;36399;51.444;-2.018;2024-03-08T04:29:40;99350.06;;;4.44;100.00
43436;BME280;36399;51.444;-2.018;2024-03-08T04:32:06;99363.03;;;4.42;100.00
43436;BME280;36399;51.444;-2.018;2024-03-08T04:34:34;99354.41;;;4.43;100.00
43436;BME280;36399;51.444;-2.018;2024-03-08T04:37:01;99374.34;;;4.44;100.00
43436;BME280;36399;51.444;-2.018;2024-03-08T04:39:27;99385.75;;;4.53;100.00
43436;BME280;36399;51.444;-2.018;2024-03-08T04:41:59;99383.94;;;4.49;100.00
43436;BME280;36399;51.444;-2.018;2024-03-08T04:44:26;99389.09;;;4.46;100.00
43436;BME280;36399;51.444;-2.018;2024-03-08T04:46:52;99390.84;;;4.47;100.00
43436;BME280;36399;51.444;-2.018;2024-03-08T04:49:18;99394.50;;;4.58;100.00
43436;BME280;36399;51.444;-2.018;2024-03-08T04:51:44;99403.16;;;4.57;100.00
43436;BME280;36399;51.444;-2.018;2024-03-08T04:54:10;99410.97;;;4.57;100.00
43436;BME280;36399;51.444;-2.018;2024-03-08T04:56:36;99420.47;;;4.56;100.00
43436;BME280;36399;51.444;-2.018;2024-03-08T04:59:02;99418.75;;;4.57;100.00
43436;BME280;36399;51.444;-2.018;2024-03-08T05:01:28;99419.63;;;4.57;100.00
43436;BME280;36399;51.444;-2.018;2024-03-08T05:03:54;99432.53;;;4.53;100.00
43436;BME280;36399;51.444;-2.018;2024-03-08T05:06:21;99440.19;;;4.45;100.00
43436;BME280;36399;51.444;-2.018;2024-03-08T05:08:47;99445.94;;;4.30;100.00
43436;BME280;36399;51.444;-2.018;2024-03-08T05:11:13;99450.94;;;4.21;100.00
43436;BME280;36399;51.444;-2.018;2024-03-08T05:13:40;99466.28;;;4.12;100.00
43436;BME280;36399;51.444;-2.018;2024-03-08T05:16:07;99464.25;;;3.99;100.00
43436;BME280;36399;51.444;-2.018;2024-03-08T05:18:33;99479.50;;;3.84;100.00
43436;BME280;36399;51.444;-2.018;2024-03-08T05:20:59;99473.28;;;3.77;100.00
43436;BME280;36399;51.444;-2.018;2024-03-08T05:23:25;99476.47;;;3.65;100.00
43436;BME280;36399;51.444;-2.018;2024-03-08T05:25:51;99479.53;;;3.51;100.00
43436;BME280;36399;51.444;-2.018;2024-03-08T05:28:17;99485.44;;;3.45;100.00
43436;BME280;36399;51.444;-2.018;2024-03-08T05:30:43;99477.66;;;3.45;100.00
43436;BME280;36399;51.444;-2.018;2024-03-08T05:33:09;99473.00;;;3.32;100.00
43436;BME280;36399;51.444;-2.018;2024-03-08T05:35:36;99467.75;;;3.29;100.00
43436;BME280;36399;51.444;-2.018;2024-03-08T05:38:02;99479.56;;;3.17;100.00
43436;BME280;36399;51.444;-2.018;2024-03-08T05:40:28;99476.03;;;3.15;100.00
43436;BME280;36399;51.444;-2.018;2024-03-08T05:43:00;99471.78;;;3.17;100.00
43436;BME280;36399;51.444;-2.018;2024-03-08T05:45:27;99477.28;;;2.98;100.00
43436;BME280;36399;51.444;-2.018;2024-03-08T05:47:53;99471.22;;;2.98;100.00
43436;BME280;36399;51.444;-2.018;2024-03-08T05:50:18;99479.78;;;2.95;100.00
43436;BME280;36399;51.444;-2.018;2024-03-08T05:52:45;99475.53;;;2.97;100.00
43436;BME280;36399;51.444;-2.018;2024-03-08T05:55:11;99474.34;;;2.86;100.00
43436;BME280;36399;51.444;-2.018;2024-03-08T05:57:41;99471.66;;;2.81;100.00
43436;BME280;36399;51.444;-2.018;2024-03-08T06:00:08;99477.31;;;2.68;100.00
43436;BME280;36399;51.444;-2.018;2024-03-08T06:02:38;99467.63;;;2.61;100.00
43436;BME280;36399;51.444;-2.018;2024-03-08T06:05:10;99458.97;;;2.61;100.00
43436;BME280;36399;51.444;-2.018;2024-03-08T06:07:37;99445.44;;;2.71;100.00
43436;BME280;36399;51.444;-2.018;2024-03-08T06:10:10;99460.72;;;2.62;100.00
43436;BME280;36399;51.444;-2.018;2024-03-08T06:12:38;99459.19;;;2.68;100.00
43436;BME280;36399;51.444;-2.018;2024-03-08T06:15:08;99457.09;;;2.57;100.00
43436;BME280;36399;51.444;-2.018;2024-03-08T06:17:35;99457.09;;;2.57;100.00
43436;BME280;36399;51.444;-2.018;2024-03-08T06:20:01;99462.56;;;2.66;100.00
43436;BME280;36399;51.444;-2.018;2024-03-08T06:22:28;99457.00;;;2.53;100.00
43436;BME280;36399;51.444;-2.018;2024-03-08T06:24:56;99461.66;;;2.64;100.00
43436;BME280;36399;51.444;-2.018;2024-03-08T06:27:22;99457.00;;;2.53;100.00
43436;BME280;36399;51.444;-2.018;2024-03-08T06:29:48;99452.84;;;2.59;100.00
43436;BME280;36399;51.444;-2.018;2024-03-08T06:32:15;99455.66;;;2.36;100.00
43436;BME280;36399;51.444;-2.018;2024-03-08T06:34:41;99464.00;;;2.26;100.00
43436;BME280;36399;51.444;-2.018;2024-03-08T06:37:07;99453.63;;;2.26;100.00
43436;BME280;36399;51.444;-2.018;2024-03-08T06:39:33;99452.06;;;2.31;100.00
43436;BME280;36399;51.444;-2.018;2024-03-08T06:42:01;99466.97;;;2.10;100.00
43436;BME280;36399;51.444;-2.018;2024-03-08T06:44:28;99468.41;;;2.02;100.00
43436;BME280;36399;51.444;-2.018;2024-03-08T06:46:54;99469.84;;;1.92;100.00
43436;BME280;36399;51.444;-2.018;2024-03-08T06:49:20;99466.28;;;1.88;100.00
43436;BME280;36399;51.444;-2.018;2024-03-08T06:51:46;99466.75;;;2.04;100.00
43436;BME280;36399;51.444;-2.018;2024-03-08T06:54:12;99474.69;;;1.81;100.00
43436;BME280;36399;51.444;-2.018;2024-03-08T06:56:38;99487.28;;;1.71;100.00
43436;BME280;36399;51.444;-2.018;2024-03-08T06:59:04;99494.84;;;1.65;100.00
43436;BME280;36399;51.444;-2.018;2024-03-08T07:01:30;99490.66;;;1.68;100.00
43436;BME280;36399;51.444;-2.018;2024-03-08T07:04:00;99475.00;;;2.19;100.00
43436;BME280;36399;51.444;-2.018;2024-03-08T07:06:31;99460.97;;;2.41;100.00
43436;BME280;36399;51.444;-2.018;2024-03-08T07:08:59;99424.03;;;2.78;100.00
43436;BME280;36399;51.444;-2.018;2024-03-08T07:11:25;99418.88;;;2.79;100.00
43436;BME280;36399;51.444;-2.018;2024-03-08T07:13:51;99417.34;;;2.86;100.00
43436;BME280;36399;51.444;-2.018;2024-03-08T07:16:17;99401.34;;;3.02;100.00
43436;BME280;36399;51.444;-2.018;2024-03-08T07:18:42;99400.16;;;3.23;100.00
43436;BME280;36399;51.444;-2.018;2024-03-08T07:21:09;99377.25;;;3.41;100.00
43436;BME280;36399;51.444;-2.018;2024-03-08T07:23:38;99364.50;;;3.50;100.00
43436;BME280;36399;51.444;-2.018;2024-03-08T07:26:23;99344.97;;;3.66;100.00
43436;BME280;36399;51.444;-2.018;2024-03-08T07:28:49;99328.78;;;3.77;100.00
43436;BME280;36399;51.444;-2.018;2024-03-08T07:31:15;99324.53;;;3.81;100.00
43436;BME280;36399;51.444;-2.018;2024-03-08T07:33:41;99316.72;;;3.79;100.00
43436;BME280;36399;51.444;-2.018;2024-03-08T07:36:07;99319.25;;;3.76;100.00
43436;BME280;36399;51.444;-2.018;2024-03-08T07:38:34;99310.16;;;3.97;100.00
43436;BME280;36399;51.444;-2.018;2024-03-08T07:41:00;99316.34;;;4.03;100.00
43436;BME280;36399;51.444;-2.018;2024-03-08T07:43:26;99307.91;;;4.15;100.00
43436;BME280;36399;51.444;-2.018;2024-03-08T07:45:52;99314.28;;;4.29;100.00
43436;BME280;36399;51.444;-2.018;2024-03-08T07:48:20;99316.22;;;4.39;100.00
43436;BME280;36399;51.444;-2.018;2024-03-08T07:50:46;99325.81;;;4.43;100.00
43436;BME280;36399;51.444;-2.018;2024-03-08T07:53:12;99324.97;;;4.44;100.00
43436;BME280;36399;51.444;-2.018;2024-03-08T07:55:38;99349.19;;;4.43;100.00
43436;BME280;36399;51.444;-2.018;2024-03-08T07:58:08;99359.66;;;4.47;100.00
43436;BME280;36399;51.444;-2.018;2024-03-08T08:00:36;99365.13;;;4.62;100.00
43436;BME280;36399;51.444;-2.018;2024-03-08T08:03:03;99371.53;;;4.78;100.00
43436;BME280;36399;51.444;-2.018;2024-03-08T08:05:30;99387.22;;;4.84;100.00
43436;BME280;36399;51.444;-2.018;2024-03-08T08:08:07;99392.59;;;4.93;100.00
43436;BME280;36399;51.444;-2.018;2024-03-08T08:10:33;99403.09;;;4.99;100.00
43436;BME280;36399;51.444;-2.018;2024-03-08T08:12:59;99419.75;;;5.08;100.00
43436;BME280;36399;51.444;-2.018;2024-03-08T08:15:25;99438.88;;;5.11;100.00
43436;BME280;36399;51.444;-2.018;2024-03-08T08:17:51;99461.63;;;5.21;100.00
43436;BME280;36399;51.444;-2.018;2024-03-08T08:20:19;99477.28;;;5.24;100.00
43436;BME280;36399;51.444;-2.018;2024-03-08T08:22:45;99483.41;;;5.27;100.00
43436;BME280;36399;51.444;-2.018;2024-03-08T08:25:11;99512.16;;;5.33;100.00
43436;BME280;36399;51.444;-2.018;2024-03-08T08:27:39;99527.84;;;5.38;100.00
43436;BME280;36399;51.444;-2.018;2024-03-08T08:30:06;99528.06;;;5.50;100.00
43436;BME280;36399;51.444;-2.018;2024-03-08T08:32:37;99576.47;;;5.39;100.00
43436;BME280;36399;51.444;-2.018;2024-03-08T08:35:03;99595.47;;;5.35;100.00
43436;BME280;36399;51.444;-2.018;2024-03-08T08:37:31;99584.63;;;5.59;100.00
43436;BME280;36399;51.444;-2.018;2024-03-08T08:39:57;99595.22;;;5.68;100.00
43436;BME280;36399;51.444;-2.018;2024-03-08T08:42:24;99594.38;;;5.70;100.00
43436;BME280;36399;51.444;-2.018;2024-03-08T08:44:51;99603.25;;;5.79;100.00
43436;BME280;36399;51.444;-2.018;2024-03-08T08:47:18;99587.63;;;5.79;100.00
43436;BME280;36399;51.444;-2.018;2024-03-08T08:49:45;99598.81;;;5.73;100.00
43436;BME280;36399;51.444;-2.018;2024-03-08T08:52:15;99603.94;;;5.70;100.00
43436;BME280;36399;51.444;-2.018;2024-03-08T08:54:43;99604.91;;;5.74;100.00
43436;BME280;36399;51.444;-2.018;2024-03-08T08:57:10;99594.53;;;5.77;100.00
43436;BME280;36399;51.444;-2.018;2024-03-08T08:59:36;99597.28;;;5.84;100.00
43436;BME280;36399;51.444;-2.018;2024-03-08T09:02:02;99580.16;;;5.97;100.00
43436;BME280;36399;51.444;-2.018;2024-03-08T09:04:29;99594.88;;;5.95;100.00
43436;BME280;36399;51.444;-2.018;2024-03-08T09:06:57;99583.75;;;6.05;100.00
43436;BME280;36399;51.444;-2.018;2024-03-08T09:09:23;99582.19;;;6.15;100.00
43436;BME280;36399;51.444;-2.018;2024-03-08T09:11:49;99581.41;;;6.20;100.00
43436;BME280;36399;51.444;-2.018;2024-03-08T09:14:15;99569.72;;;6.50;100.00
43436;BME280;36399;51.444;-2.018;2024-03-08T09:16:41;99557.66;;;6.58;100.00
43436;BME280;36399;51.444;-2.018;2024-03-08T09:19:07;99559.31;;;6.53;100.00
43436;BME280;36399;51.444;-2.018;2024-03-08T09:21:33;99547.22;;;6.58;100.00
43436;BME280;36399;51.444;-2.018;2024-03-08T09:24:01;99540.41;;;6.69;100.00
43436;BME280;36399;51.444;-2.018;2024-03-08T09:26:27;99533.50;;;6.71;100.00
43436;BME280;36399;51.444;-2.018;2024-03-08T09:28:53;99522.41;;;6.86;100.00
43436;BME280;36399;51.444;-2.018;2024-03-08T09:31:21;99510.31;;;6.92;100.00
43436;BME280;36399;51.444;-2.018;2024-03-08T09:33:47;99498.91;;;6.84;100.00
43436;BME280;36399;51.444;-2.018;2024-03-08T09:36:13;99501.78;;;7.07;100.00
43436;BME280;36399;51.444;-2.018;2024-03-08T09:38:40;99499.16;;;7.06;100.00
43436;BME280;36399;51.444;-2.018;2024-03-08T09:41:06;99499.28;;;7.18;100.00
43436;BME280;36399;51.444;-2.018;2024-03-08T09:43:32;99493.28;;;7.25;100.00
43436;BME280;36399;51.444;-2.018;2024-03-08T09:45:58;99490.94;;;7.49;100.00
43436;BME280;36399;51.444;-2.018;2024-03-08T09:48:25;99476.44;;;7.82;100.00
43436;BME280;36399;51.444;-2.018;2024-03-08T09:50:52;99487.75;;;7.84;100.00
43436;BME280;36399;51.444;-2.018;2024-03-08T09:53:18;99483.47;;;7.92;100.00
43436;BME280;36399;51.444;-2.018;2024-03-08T09:55:44;99487.00;;;7.99;100.00
43436;BME280;36399;51.444;-2.018;2024-03-08T09:58:15;99479.16;;;7.97;100.00
43436;BME280;36399;51.444;-2.018;2024-03-08T10:00:54;99463.66;;;8.28;100.00
43436;BME280;36399;51.444;-2.018;2024-03-08T10:03:20;99456.03;;;8.58;100.00
43436;BME280;36399;51.444;-2.018;2024-03-08T10:05:46;99464.09;;;9.16;100.00
43436;BME280;36399;51.444;-2.018;2024-03-08T10:08:12;99470.31;;;10.05;100.00
43436;BME280;36399;51.444;-2.018;2024-03-08T10:10:39;99479.66;;;11.11;100.00
43436;BME280;36399;51.444;-2.018;2024-03-08T10:13:09;99512.75;;;11.43;100.00
43436;BME280;36399;51.444;-2.018;2024-03-08T10:15:39;99507.13;;;12.04;100.00
43436;BME280;36399;51.444;-2.018;2024-03-08T10:18:06;99480.38;;;12.46;100.00
43436;BME280;36399;51.444;-2.018;2024-03-08T10:20:33;99433.63;;;12.70;100.00
43436;BME280;36399;51.444;-2.018;2024-03-08T10:23:02;99402.75;;;12.81;100.00
43436;BME280;36399;51.444;-2.018;2024-03-08T10:25:31;99392.59;;;12.53;100.00
43436;BME280;36399;51.444;-2.018;2024-03-08T10:27:57;99214.81;;;12.85;100.00
43436;BME280;36399;51.444;-2.018;2024-03-08T10:30:23;98713.72;;;12.40;100.00
43436;BME280;36399;51.444;-2.018;2024-03-08T10:32:49;97152.22;;;12.48;100.00
43436;BME280;36399;51.444;-2.018;2024-03-08T10:35:15;98468.50;;;12.25;100.00
43436;BME280;36399;51.444;-2.018;2024-03-08T10:37:47;98675.63;;;11.76;100.00
43436;BME280;36399;51.444;-2.018;2024-03-08T10:40:16;98688.78;;;11.74;100.00
43436;BME280;36399;51.444;-2.018;2024-03-08T10:42:54;98686.59;;;11.97;100.00
43436;BME280;36399;51.444;-2.018;2024-03-08T10:50:41;98764.66;;;12.37;100.00
43436;BME280;36399;51.444;-2.018;2024-03-08T10:53:11;98727.00;;;12.74;100.00
43436;BME280;36399;51.444;-2.018;2024-03-08T10:55:40;98719.69;;;12.85;100.00
43436;BME280;36399;51.444;-2.018;2024-03-08T10:58:06;98728.56;;;12.81;100.00
43436;BME280;36399;51.444;-2.018;2024-03-08T11:00:34;98753.41;;;12.71;100.00
43436;BME280;36399;51.444;-2.018;2024-03-08T11:03:00;98748.84;;;13.14;100.00
43436;BME280;36399;51.444;-2.018;2024-03-08T11:05:40;98813.38;;;14.02;100.00
43436;BME280;36399;51.444;-2.018;2024-03-08T11:08:18;99101.31;;;14.25;100.00
43436;BME280;36399;51.444;-2.018;2024-03-08T11:10:55;99397.13;;;15.04;100.00
43436;BME280;36399;51.444;-2.018;2024-03-08T11:13:42;99489.38;;;15.18;100.00
43436;BME280;36399;51.444;-2.018;2024-03-08T11:19:01;99543.09;;;14.21;100.00
43436;BME280;36399;51.444;-2.018;2024-03-08T11:21:31;99553.88;;;14.63;100.00
43436;BME280;36399;51.444;-2.018;2024-03-08T11:24:00;99561.94;;;13.97;100.00
43436;BME280;36399;51.444;-2.018;2024-03-08T11:26:27;99536.44;;;13.97;100.00
43436;BME280;36399;51.444;-2.018;2024-03-08T11:28:53;99543.91;;;13.69;100.00
43436;BME280;36399;51.444;-2.018;2024-03-08T11:31:22;99553.00;;;14.08;100.00
43436;BME280;36399;51.444;-2.018;2024-03-08T11:33:48;99549.19;;;13.69;100.00
43436;BME280;36399;51.444;-2.018;2024-03-08T11:36:24;99559.47;;;13.86;100.00
43436;BME280;36399;51.444;-2.018;2024-03-08T11:38:52;99551.06;;;13.61;100.00
43436;BME280;36399;51.444;-2.018;2024-03-08T11:41:20;99554.84;;;13.39;100.00
43436;BME280;36399;51.444;-2.018;2024-03-08T11:43:47;99551.53;;;13.24;100.00
43436;BME280;36399;51.444;-2.018;2024-03-08T11:46:15;99554.72;;;13.48;100.00
43436;BME280;36399;51.444;-2.018;2024-03-08T11:48:42;99562.84;;;13.96;100.00
43436;BME280;36399;51.444;-2.018;2024-03-08T11:51:08;99570.84;;;13.91;100.00
43436;BME280;36399;51.444;-2.018;2024-03-08T11:53:34;99574.16;;;14.61;100.00
43436;BME280;36399;51.444;-2.018;2024-03-08T11:56:09;99579.88;;;14.84;100.00
43436;BME280;36399;51.444;-2.018;2024-03-08T11:58:35;99578.13;;;15.72;100.00
43436;BME280;36399;51.444;-2.018;2024-03-08T12:01:05;99581.41;;;15.42;100.00
43436;BME280;36399;51.444;-2.018;2024-03-08T12:03:31;99566.03;;;15.18;100.00
43436;BME280;36399;51.444;-2.018;2024-03-08T12:06:00;99572.03;;;15.26;100.00
43436;BME280;36399;51.444;-2.018;2024-03-08T12:08:28;99568.09;;;15.87;100.00
43436;BME280;36399;51.444;-2.018;2024-03-08T12:10:54;99568.31;;;15.77;100.00
43436;BME280;36399;51.444;-2.018;2024-03-08T12:13:31;99564.47;;;15.09;100.00
43436;BME280;36399;51.444;-2.018;2024-03-08T12:15:58;99566.16;;;15.95;100.00
43436;BME280;36399;51.444;-2.018;2024-03-08T12:18:27;99566.00;;;16.01;100.00
43436;BME280;36399;51.444;-2.018;2024-03-08T12:21:12;99567.25;;;16.23;100.00
43436;BME280;36399;51.444;-2.018;2024-03-08T12:23:45;99560.28;;;15.82;100.00
43436;BME280;36399;51.444;-2.018;2024-03-08T12:26:16;99561.28;;;16.15;100.00
43436;BME280;36399;51.444;-2.018;2024-03-08T12:28:43;99555.09;;;16.15;100.00
43436;BME280;36399;51.444;-2.018;2024-03-08T12:31:12;99546.47;;;16.42;100.00
43436;BME280;36399;51.444;-2.018;2024-03-08T12:33:52;99552.00;;;15.96;100.00
43436;BME280;36399;51.444;-2.018;2024-03-08T12:36:19;99551.09;;;15.97;100.00
43436;BME280;36399;51.444;-2.018;2024-03-08T12:38:46;99542.19;;;15.21;100.00
43436;BME280;36399;51.444;-2.018;2024-03-08T12:41:18;99537.34;;;14.98;100.00
43436;BME280;36399;51.444;-2.018;2024-03-08T12:43:45;99534.19;;;14.79;100.00
43436;BME280;36399;51.444;-2.018;2024-03-08T12:46:18;99533.59;;;14.12;100.00
43436;BME280;36399;51.444;-2.018;2024-03-08T12:48:55;99529.13;;;13.57;100.00
43436;BME280;36399;51.444;-2.018;2024-03-08T12:51:22;99517.75;;;13.54;100.00
43436;BME280;36399;51.444;-2.018;2024-03-08T12:53:48;99518.63;;;14.13;100.00
43436;BME280;36399;51.444;-2.018;2024-03-08T12:56:20;99514.19;;;14.66;100.00
43436;BME280;36399;51.444;-2.018;2024-03-08T12:58:54;99511.41;;;15.58;100.00